www.seifhennersdorf-wetter.de
Wetterdaten: aktuell Samstag, 30.05.2020 13:30
Datum Zeit Temp. A. Gewchsh. Temp. Wind Windchill X Diff Temp. Feuchte A. Feuchte 2 % Gewchsh. Sonnenschein Luftdruck Regen Wind Richtung Richtung Sonnenschein Taupunkt Windchill Windben
30.05.2020 13:30 17,1 C 0,0 C 19,8 C 19,8 C 9,4 C 31 % 22 % 0 % 100 % 1023,4 hPa 0,0 l/m 11,0 km/h (2 Bft) N-NW 337 60 min -0,2 C 17,1 C 10,4 km/h (2 Bft)
30.05.2020 12:30 14,3 C 0,0 C 15,3 C 15,3 C 12,0 C 31 % 27 % 0 % 100 % 1023,9 hPa 0,0 l/m 13,7 km/h (3 Bft) O-NO 67 60 min -2,6 C 14,3 C 8,3 km/h (2 Bft)
30.05.2020 11:30 13,2 C 0,0 C 16,2 C 16,2 C 12,8 C 36 % 30 % 0 % 100 % 1023,9 hPa 0,0 l/m 11,2 km/h (2 Bft) N-NW 337 60 min -1,5 C 13,2 C 11,8 km/h (2 Bft)
30.05.2020 10:30 11,9 C 0,0 C 15,3 C 15,3 C 14,0 C 38 % 31 % 0 % 100 % 1024,1 hPa 0,0 l/m 13,5 km/h (3 Bft) N-NW 337 60 min -2,0 C 11,9 C 13,7 km/h (3 Bft)
30.05.2020 09:30 11,3 C 0,0 C 14,4 C 14,4 C 14,6 C 41 % 33 % 0 % 100 % 1024,1 hPa 0,0 l/m 13,7 km/h (3 Bft) N-NW 337 60 min -1,5 C 11,3 C 14,7 km/h (3 Bft)
30.05.2020 08:30 10,3 C 0,0 C 14,6 C 14,6 C 15,5 C 48 % 40 % 0 % 100 % 1024,1 hPa 0,0 l/m 9,7 km/h (2 Bft) NW 315 60 min -0,2 C 10,3 C 6,6 km/h (2 Bft)
30.05.2020 07:30 9,9 C 0,0 C 13,4 C 13,4 C 16,0 C 53 % 43 % 0 % 100 % 1024,4 hPa 0,0 l/m 8,1 km/h (2 Bft) NO 45 60 min 0,8 C 8,9 C 10,6 km/h (2 Bft)
30.05.2020 06:30 8,4 C 0,0 C 11,4 C 11,4 C 17,6 C 56 % 53 % 0 % 100 % 1024,6 hPa 0,0 l/m 8,9 km/h (2 Bft) O-NO 67 60 min 0,1 C 6,9 C 9,3 km/h (2 Bft)
30.05.2020 05:30 8,5 C 0,0 C 8,3 C 7,5 C 17,6 C 55 % 53 % 0 % 100 % 1024,6 hPa 0,0 l/m 8,3 km/h (2 Bft) N-NO 22 24 min -0,0 C 7,2 C 7,5 km/h (2 Bft)
30.05.2020 04:30 8,7 C 0,0 C 8,4 C 7,4 C 17,5 C 57 % 57 % 0 % 0 % 1024,5 hPa 0,0 l/m 7,3 km/h (2 Bft) N-NO 22 0 min 0,7 C 7,6 C 5,8 km/h (2 Bft)
30.05.2020 03:30 9,1 C 0,0 C 8,8 C 7,9 C 17,5 C 57 % 58 % 0 % 0 % 1024,5 hPa 0,0 l/m 6,0 km/h (2 Bft) NW 315 0 min 1,0 C 8,4 C 5,4 km/h (2 Bft)
30.05.2020 02:30 9,5 C 0,0 C 9,3 C 8,4 C 17,2 C 56 % 56 % 0 % 0 % 1024,6 hPa 0,0 l/m 4,4 km/h (1 Bft) N-NO 22 0 min 1,2 C 9,5 C 6,4 km/h (2 Bft)
30.05.2020 01:30 10,4 C 0,0 C 10,4 C 9,9 C 16,4 C 55 % 53 % 0 % 0 % 1024,9 hPa 0,0 l/m 6,6 km/h (2 Bft) N 360 0 min 1,8 C 10,4 C 5,0 km/h (1 Bft)
30.05.2020 00:30 10,5 C 0,0 C 10,5 C 10,2 C 16,4 C 54 % 53 % 0 % 0 % 1025,3 hPa 0,0 l/m 4,4 km/h (1 Bft) NW 315 0 min 1,6 C 10,5 C 4,6 km/h (1 Bft)
29.05.2020 23:30 10,9 C 0,0 C 10,9 C 10,4 C 16,1 C 51 % 49 % 0 % 0 % 1025,6 hPa 0,0 l/m 3,7 km/h (1 Bft) NW 315 0 min 1,2 C 10,9 C 4,6 km/h (1 Bft)
29.05.2020 22:30 11,3 C 0,0 C 11,3 C 10,8 C 15,7 C 46 % 44 % 0 % 0 % 1025,9 hPa 0,0 l/m 2,1 km/h (1 Bft) N-NW 337 0 min 0,1 C 11,3 C 2,7 km/h (1 Bft)
29.05.2020 21:30 12,8 C 0,0 C 12,9 C 12,6 C 14,0 C 41 % 37 % 0 % 0 % 1025,9 hPa 0,0 l/m 6,8 km/h (2 Bft) NO 45 20 min -0,1 C 12,8 C 7,1 km/h (2 Bft)
29.05.2020 20:30 13,6 C 0,0 C 13,6 C 13,3 C 12,6 C 42 % 38 % 0 % 100 % 1025,9 hPa 0,0 l/m 5,8 km/h (2 Bft) N-NO 22 60 min 0,9 C 13,6 C 6,2 km/h (2 Bft)
29.05.2020 19:30 14,3 C 0,0 C 14,7 C 14,7 C 12,1 C 39 % 33 % 0 % 100 % 1026,3 hPa 0,0 l/m 4,8 km/h (1 Bft) NO 45 46 min 0,5 C 14,3 C 5,2 km/h (1 Bft)
29.05.2020 16:26 16,8 C 0,0 C 18,2 C 18,2 C 9,8 C 31 % 22 % 0 % 100 % 1027,1 hPa 0,0 l/m 14,9 km/h (3 Bft) N-NO 22 60 min -0,4 C 16,8 C 13,7 km/h (3 Bft)
29.05.2020 15:26 16,1 C 0,0 C 16,6 C 16,6 C 10,3 C 31 % 23 % 0 % 100 % 1027,8 hPa 0,0 l/m 12,2 km/h (2 Bft) O-NO 67 60 min -1,0 C 16,1 C 14,7 km/h (3 Bft)
29.05.2020 14:26 17,1 C 0,0 C 18,0 C 18,0 C 8,9 C 31 % 22 % 0 % 100 % 1028,0 hPa 0,0 l/m 12,2 km/h (2 Bft) NO 45 26 min -0,2 C 17,1 C 18,7 km/h (3 Bft)
29.05.2020 14:00 16,5 C 0,0 C 17,1 C 17,1 C 9,4 C 31 % 22 % 0 % 100 % 1028,0 hPa 0,0 l/m 14,1 km/h (3 Bft) N-NO 22 0 min -0,7 C 16,5 C 13,5 km/h (3 Bft)
_ Min-Zeit 05:48 14:00 05:48 05:50 14:14 14:16 14:20 14:00 20:52 13:20 - 22:34 - - - 11:18 06:28 22:24
Minimum _ 8,3 C 0,0 C 8,1 C 7,2 C 8,8 C 30 % 21 % 0 % 0 % 1023,4 hPa - 1,7 km/h (1 Bft) - - - -3,1 C 6,9 C 0,0 km/h (0 Bft)
_ Max-Zeit 15:16 14:00 13:30 13:30 05:48 03:38 03:48 14:00 14:00 14:00 14:00 09:48 - - 17:24 01:03 15:16 09:38
Maximum _ 17,3 C 0,0 C 19,8 C 19,8 C 17,8 C 58 % 59 % 0 % 100 % 1028,0 hPa 0,0 l/m 15,8 km/h
N-NO (3 Bft)
- - 20 min 1,8 C 17,3 C 29,9 km/h
N-NW (5 Bft)
Durchschnitt _ 12,5 C 0,0 C 13,5 C 13,3 C 13,8 C 43 % 38 % 0 % 68 % 1025,5 hPa #0,0 l/m 8,6 km/h (2 Bft) N-NO - #8:24 h -0,1 C 12,3 C 10,0 km/h (2 Bft)
© 2020 Udo Grun